createdAt,value
2019-04-29T00:01:59.877Z,65.07
2019-04-29T00:04:29.421Z,65.09
2019-04-29T00:06:59.040Z,65.14
2019-04-29T00:09:30.925Z,65.21
2019-04-29T00:11:59.958Z,65.27
2019-04-29T00:14:30.282Z,65.33
2019-04-29T00:17:03.377Z,65.40
2019-04-29T00:19:50.419Z,65.51
2019-04-29T00:22:20.012Z,65.54
2019-04-29T00:24:49.553Z,65.60
2019-04-29T00:27:20.572Z,65.65
2019-04-29T00:29:50.116Z,65.71
2019-04-29T00:32:19.787Z,65.74
2019-04-29T00:34:49.372Z,65.81
2019-04-29T00:37:36.795Z,65.88
2019-04-29T00:40:20.158Z,65.94
2019-04-29T00:42:51.343Z,66.01
2019-04-29T00:45:21.020Z,66.04
2019-04-29T00:47:51.495Z,66.14
2019-04-29T00:50:21.113Z,66.21
2019-04-29T00:52:50.730Z,66.25
2019-04-29T00:55:30.804Z,66.28
2019-04-29T00:58:00.286Z,66.33
2019-04-29T01:00:31.926Z,66.40
2019-04-29T01:03:01.544Z,66.47
2019-04-29T01:05:31.171Z,66.52
2019-04-29T01:08:00.793Z,66.60
2019-04-29T01:10:30.572Z,66.65
2019-04-29T01:13:00.180Z,66.69
2019-04-29T01:15:29.819Z,66.78
2019-04-29T01:17:59.440Z,66.85
2019-04-29T01:20:29.104Z,66.88
2019-04-29T01:22:58.578Z,66.96
2019-04-29T01:25:28.138Z,67.04
2019-04-29T01:28:02.104Z,67.11
2019-04-29T01:30:55.765Z,67.19
2019-04-29T01:33:25.365Z,67.24
2019-04-29T01:35:56.551Z,67.31
2019-04-29T01:38:26.063Z,67.37
2019-04-29T01:40:57.182Z,67.44
2019-04-29T01:43:28.421Z,67.49
2019-04-29T01:45:57.983Z,67.53
2019-04-29T01:48:27.395Z,67.61
2019-04-29T01:50:56.943Z,67.68
2019-04-29T01:53:26.354Z,67.75
2019-04-29T01:55:57.077Z,67.78
2019-04-29T01:58:26.546Z,67.86
2019-04-29T02:00:56.029Z,67.94
2019-04-29T02:03:25.479Z,67.95
2019-04-29T02:05:55.163Z,68.02
2019-04-29T02:08:24.635Z,68.05
2019-04-29T02:10:55.571Z,68.12
2019-04-29T02:13:24.978Z,68.21
2019-04-29T02:15:54.407Z,68.25
2019-04-29T02:18:23.888Z,68.31
2019-04-29T02:20:53.301Z,68.36
2019-04-29T02:23:24.438Z,68.41
2019-04-29T02:25:54.219Z,68.45
2019-04-29T02:28:23.641Z,68.52
2019-04-29T02:30:53.496Z,68.57
2019-04-29T02:33:22.943Z,68.66
2019-04-29T02:35:52.401Z,68.70
2019-04-29T02:38:26.326Z,68.75
2019-04-29T02:40:57.569Z,68.81
2019-04-29T02:43:46.459Z,68.86
2019-04-29T02:46:16.015Z,68.91
2019-04-29T02:48:45.520Z,68.97
2019-04-29T02:51:16.745Z,69.03
2019-04-29T02:53:46.223Z,69.08
2019-04-29T02:56:15.648Z,69.15
2019-04-29T02:58:46.807Z,69.22
2019-04-29T03:01:18.099Z,69.28
2019-04-29T03:03:52.154Z,69.33
2019-04-29T03:06:21.692Z,69.36
2019-04-29T03:08:51.266Z,69.39
2019-04-29T03:11:21.728Z,69.46
2019-04-29T03:13:51.239Z,69.50
2019-04-29T03:16:20.845Z,69.54
2019-04-29T03:18:57.795Z,69.59
2019-04-29T03:21:35.041Z,69.64
2019-04-29T03:24:04.633Z,69.71
2019-04-29T03:26:34.113Z,69.78
2019-04-29T03:29:05.342Z,69.86
2019-04-29T03:31:39.117Z,69.93
2019-04-29T03:34:06.183Z,70.00
2019-04-29T03:36:35.690Z,70.07
2019-04-29T03:39:05.953Z,70.12
2019-04-29T03:41:35.933Z,70.16
2019-04-29T03:44:05.407Z,70.17
2019-04-29T03:46:34.965Z,70.18
2019-04-29T03:49:04.615Z,70.26
2019-04-29T03:51:34.288Z,70.30
2019-04-29T03:54:03.766Z,70.34
2019-04-29T03:56:33.299Z,70.35
2019-04-29T03:59:03.082Z,70.42
2019-04-29T04:01:34.338Z,70.45
2019-04-29T04:04:08.391Z,70.48
2019-04-29T04:06:39.484Z,70.50
2019-04-29T04:09:19.805Z,70.58
2019-04-29T04:11:49.635Z,70.62
2019-04-29T04:14:20.193Z,70.65
2019-04-29T04:17:00.015Z,70.74
2019-04-29T04:19:31.065Z,70.77
2019-04-29T04:22:00.586Z,70.84
2019-04-29T04:24:30.072Z,70.89
2019-04-29T04:27:02.385Z,70.89
2019-04-29T04:29:31.944Z,70.98
2019-04-29T04:32:02.560Z,71.01
2019-04-29T04:34:32.130Z,71.03
2019-04-29T04:37:01.619Z,71.08
2019-04-29T04:39:32.773Z,71.10
2019-04-29T04:42:02.266Z,71.15
2019-04-29T04:44:50.299Z,71.17
2019-04-29T04:47:20.351Z,71.22
2019-04-29T04:49:49.889Z,71.24
2019-04-29T04:52:19.561Z,71.25
2019-04-29T04:54:50.769Z,71.29
2019-04-29T04:57:21.811Z,71.31
2019-04-29T04:59:51.463Z,71.31
2019-04-29T05:02:22.740Z,71.30
2019-04-29T05:04:52.518Z,71.29
2019-04-29T05:07:21.931Z,71.27
2019-04-29T05:09:52.898Z,71.27
2019-04-29T05:12:22.451Z,71.29
2019-04-29T05:14:52.750Z,71.29
2019-04-29T05:17:22.174Z,71.30
2019-04-29T05:19:51.666Z,71.30
2019-04-29T05:22:21.276Z,71.27
2019-04-29T05:24:50.749Z,71.24
2019-04-29T05:27:20.261Z,71.21
2019-04-29T05:29:49.803Z,71.14
2019-04-29T05:32:19.297Z,71.07
2019-04-29T05:34:50.472Z,71.04
2019-04-29T05:37:27.514Z,71.01
2019-04-29T05:39:57.045Z,70.96
2019-04-29T05:42:26.463Z,70.93
2019-04-29T05:44:57.619Z,70.88
2019-04-29T05:47:37.396Z,70.83
2019-04-29T05:50:27.377Z,70.72
2019-04-29T05:53:16.116Z,70.61
2019-04-29T05:55:43.347Z,70.52
2019-04-29T05:58:14.123Z,70.41
2019-04-29T06:00:45.340Z,70.30
2019-04-29T06:03:14.998Z,70.17
2019-04-29T06:05:44.554Z,70.08
2019-04-29T06:08:14.091Z,69.96
2019-04-29T06:10:43.584Z,69.85
2019-04-29T06:13:13.064Z,69.76
2019-04-29T06:15:42.561Z,69.63
2019-04-29T06:18:12.226Z,69.52
2019-04-29T06:20:42.878Z,69.48
2019-04-29T06:23:12.440Z,69.38
2019-04-29T06:25:41.936Z,69.27
2019-04-29T06:28:11.471Z,69.16
2019-04-29T06:30:45.143Z,69.08
2019-04-29T06:33:12.256Z,68.97
2019-04-29T06:35:43.296Z,68.88
2019-04-29T06:38:13.529Z,68.77
2019-04-29T06:40:43.013Z,68.61
2019-04-29T06:43:12.501Z,68.48
2019-04-29T06:45:42.039Z,68.38
2019-04-29T06:48:11.667Z,68.32
2019-04-29T06:50:41.229Z,68.20
2019-04-29T06:53:16.521Z,68.12
2019-04-29T06:55:43.205Z,68.02
2019-04-29T06:58:12.697Z,67.87
2019-04-29T07:00:42.157Z,67.75
2019-04-29T07:03:11.581Z,67.66
2019-04-29T07:05:41.072Z,67.55
2019-04-29T07:08:10.626Z,67.46
2019-04-29T07:10:40.122Z,67.34
2019-04-29T07:13:09.572Z,67.23
2019-04-29T07:15:39.133Z,67.12
2019-04-29T07:18:08.700Z,67.05
2019-04-29T07:20:38.812Z,66.93
2019-04-29T07:23:08.424Z,66.79
2019-04-29T07:25:37.880Z,66.65
2019-04-29T07:28:07.377Z,66.50
2019-04-29T07:30:39.340Z,66.36
2019-04-29T07:33:07.902Z,66.21
2019-04-29T07:35:38.239Z,66.03
2019-04-29T07:38:08.666Z,65.92
2019-04-29T07:40:44.626Z,65.81
2019-04-29T07:43:11.539Z,65.74
2019-04-29T07:45:58.892Z,65.65
2019-04-29T07:48:25.883Z,65.56
2019-04-29T07:50:59.419Z,65.44
2019-04-29T07:53:36.014Z,65.28
2019-04-29T07:56:01.752Z,65.14
2019-04-29T07:58:30.745Z,64.95
2019-04-29T08:01:00.314Z,64.87
2019-04-29T08:03:30.090Z,64.78
2019-04-29T08:05:59.744Z,64.72
2019-04-29T08:08:31.511Z,64.60
2019-04-29T08:11:01.139Z,64.50
2019-04-29T08:13:34.941Z,64.32
2019-04-29T08:16:06.146Z,64.23
2019-04-29T08:18:35.739Z,64.07
2019-04-29T08:21:05.364Z,63.99
2019-04-29T08:23:41.230Z,63.88
2019-04-29T08:26:06.193Z,63.72
2019-04-29T08:28:35.613Z,63.62
2019-04-29T08:31:05.244Z,63.47
2019-04-29T08:33:34.765Z,63.35
2019-04-29T08:36:04.393Z,63.20
2019-04-29T08:38:33.949Z,63.04
2019-04-29T08:41:03.540Z,62.86
2019-04-29T08:43:34.803Z,62.76
2019-04-29T08:46:08.989Z,62.63
2019-04-29T08:48:38.433Z,62.44
2019-04-29T08:51:07.985Z,62.30
2019-04-29T08:53:37.738Z,62.16
2019-04-29T08:56:10.176Z,61.99
2019-04-29T08:58:39.527Z,61.88
2019-04-29T09:01:10.297Z,61.73
2019-04-29T09:03:41.000Z,61.57
2019-04-29T09:06:10.731Z,61.38
2019-04-29T09:08:54.189Z,61.19
2019-04-29T09:11:12.863Z,60.98
2019-04-29T09:13:44.194Z,60.86
2019-04-29T09:16:13.745Z,60.70
2019-04-29T09:18:43.247Z,60.61
2019-04-29T09:21:12.878Z,60.51
2019-04-29T09:23:42.502Z,60.39
2019-04-29T09:26:28.642Z,60.24
2019-04-29T09:28:59.832Z,60.09
2019-04-29T09:31:29.578Z,59.99
2019-04-29T09:34:06.642Z,59.82
2019-04-29T09:36:31.803Z,59.71
2019-04-29T09:39:01.226Z,59.58
2019-04-29T09:41:36.918Z,59.41
2019-04-29T09:44:24.621Z,59.26
2019-04-29T09:46:54.248Z,59.11
2019-04-29T09:49:23.884Z,58.96
2019-04-29T09:51:53.527Z,58.86
2019-04-29T09:54:23.169Z,58.76
2019-04-29T09:56:52.649Z,58.63
2019-04-29T09:59:23.909Z,58.49
2019-04-29T10:02:11.695Z,58.35
2019-04-29T10:04:55.942Z,58.21
2019-04-29T10:07:14.350Z,58.06
2019-04-29T10:09:56.520Z,57.91
2019-04-29T10:12:16.311Z,57.80
2019-04-29T10:14:46.088Z,57.64
2019-04-29T10:17:23.378Z,57.53
2019-04-29T10:20:00.691Z,57.43
2019-04-29T10:22:30.250Z,57.26
2019-04-29T10:24:59.753Z,57.20
2019-04-29T10:27:29.394Z,57.05
2019-04-29T10:29:59.048Z,56.88
2019-04-29T10:32:28.614Z,56.74
2019-04-29T10:34:58.238Z,56.54
2019-04-29T10:37:31.389Z,56.44
2019-04-29T10:40:16.694Z,56.30
2019-04-29T10:42:47.965Z,56.12
2019-04-29T10:45:31.441Z,55.91
2019-04-29T10:48:20.814Z,55.69
2019-04-29T10:50:53.900Z,55.44
2019-04-29T10:53:23.698Z,55.12
2019-04-29T10:55:53.446Z,54.81
2019-04-29T10:58:29.840Z,54.55
2019-04-29T11:01:01.586Z,54.30
2019-04-29T11:03:31.397Z,54.05
2019-04-29T11:06:02.074Z,53.78
2019-04-29T11:08:38.124Z,53.50
2019-04-29T11:11:07.063Z,53.31
2019-04-29T11:13:45.958Z,53.09
2019-04-29T11:16:10.148Z,52.90
2019-04-29T11:18:39.901Z,52.73
2019-04-29T11:21:14.281Z,52.63
2019-04-29T11:23:54.776Z,52.47
2019-04-29T11:26:30.892Z,52.29
2019-04-29T11:29:00.313Z,52.13
2019-04-29T11:31:29.865Z,51.97
2019-04-29T11:34:01.037Z,51.77
2019-04-29T11:36:30.895Z,51.61
2019-04-29T11:39:00.451Z,51.46
2019-04-29T11:41:31.776Z,51.30
2019-04-29T11:44:01.394Z,51.16
2019-04-29T11:46:31.674Z,51.03
2019-04-29T11:49:02.865Z,50.93
2019-04-29T11:51:47.335Z,50.81
2019-04-29T11:54:08.245Z,50.68
2019-04-29T11:56:39.414Z,50.54
2019-04-29T11:59:26.034Z,50.46
2019-04-29T12:02:06.187Z,50.30
2019-04-29T12:04:37.328Z,50.18
2019-04-29T12:07:07.972Z,50.06
2019-04-29T12:09:37.605Z,49.97
2019-04-29T12:12:12.723Z,49.87
2019-04-29T12:14:41.457Z,49.71
2019-04-29T12:17:15.260Z,49.61
2019-04-29T12:19:46.565Z,49.51
2019-04-29T12:22:28.435Z,49.37
2019-04-29T12:24:47.306Z,49.24
2019-04-29T12:27:19.700Z,49.07
2019-04-29T12:29:53.262Z,48.99
2019-04-29T12:32:26.618Z,48.87
2019-04-29T12:35:04.051Z,48.74
2019-04-29T12:37:37.986Z,48.61
2019-04-29T12:40:14.458Z,48.46
2019-04-29T12:43:02.751Z,48.32
2019-04-29T12:45:36.888Z,48.16
2019-04-29T12:48:06.740Z,48.00
2019-04-29T12:50:36.310Z,47.91
2019-04-29T12:53:06.039Z,47.77
2019-04-29T12:55:45.167Z,47.65
2019-04-29T12:58:11.396Z,47.53
2019-04-29T13:00:48.117Z,47.43
2019-04-29T13:03:13.810Z,47.29
2019-04-29T13:05:57.665Z,47.18
2019-04-29T13:08:17.802Z,47.08
2019-04-29T13:10:52.642Z,46.94
2019-04-29T13:13:22.940Z,46.83
2019-04-29T13:16:12.465Z,46.68
2019-04-29T13:18:48.977Z,46.61
2019-04-29T13:21:17.818Z,46.45
2019-04-29T13:23:59.415Z,46.34
2019-04-29T13:26:27.909Z,46.26
2019-04-29T13:29:00.155Z,46.15
2019-04-29T13:31:36.996Z,46.09
2019-04-29T13:33:53.928Z,45.98
2019-04-29T13:36:26.006Z,45.88
2019-04-29T13:38:54.800Z,45.76
2019-04-29T13:41:25.965Z,45.68
2019-04-29T13:44:04.340Z,45.59
2019-04-29T13:46:51.096Z,45.56
2019-04-29T13:49:25.649Z,45.52
2019-04-29T13:51:56.830Z,45.44
2019-04-29T13:54:26.461Z,45.33
2019-04-29T13:56:56.937Z,45.25
2019-04-29T13:59:31.824Z,45.21
2019-04-29T14:02:09.108Z,45.14
2019-04-29T14:04:40.301Z,45.07
2019-04-29T14:07:10.049Z,44.97
2019-04-29T14:09:40.546Z,44.89
2019-04-29T14:12:46.309Z,44.83
2019-04-29T14:14:41.829Z,44.77
2019-04-29T14:17:25.423Z,44.69
2019-04-29T14:19:42.772Z,44.63
2019-04-29T14:22:21.960Z,44.55
2019-04-29T14:24:46.725Z,44.47
2019-04-29T14:27:24.498Z,44.36
2019-04-29T14:29:46.044Z,44.34
2019-04-29T14:32:18.274Z,44.26
2019-04-29T14:34:54.452Z,44.21
2019-04-29T14:37:25.515Z,44.13
2019-04-29T14:39:55.606Z,44.07
2019-04-29T14:42:32.883Z,43.97
2019-04-29T14:45:04.044Z,43.88
2019-04-29T14:47:35.475Z,43.81
2019-04-29T14:50:15.565Z,43.77
2019-04-29T14:52:44.853Z,43.65
2019-04-29T14:55:15.048Z,43.61
2019-04-29T14:57:46.329Z,43.49
2019-04-29T15:00:19.856Z,43.43
2019-04-29T15:02:49.165Z,43.34
2019-04-29T15:05:18.800Z,43.24
2019-04-29T15:07:48.423Z,43.17
2019-04-29T15:10:18.067Z,43.11
2019-04-29T15:13:01.493Z,43.02
2019-04-29T15:15:34.236Z,42.96
2019-04-29T15:18:15.509Z,42.86
2019-04-29T15:20:36.701Z,42.79
2019-04-29T15:23:06.190Z,42.72
2019-04-29T15:25:35.682Z,42.64
2019-04-29T15:28:05.311Z,42.58
2019-04-29T15:30:36.879Z,42.54
2019-04-29T15:33:06.184Z,42.47
2019-04-29T15:35:35.743Z,42.41
2019-04-29T15:45:40.737Z,42.18
2019-04-29T15:48:10.569Z,42.03
2019-04-29T15:50:40.092Z,41.97
2019-04-29T15:53:10.760Z,41.91
2019-04-29T15:55:41.314Z,41.86
2019-04-29T15:58:12.826Z,41.83
2019-04-29T16:02:16.224Z,41.73
2019-04-29T16:04:53.490Z,41.70
2019-04-29T16:07:27.523Z,41.67
2019-04-29T16:10:01.412Z,41.61
2019-04-29T16:12:33.026Z,41.54
2019-04-29T16:15:02.533Z,41.50
2019-04-29T16:17:38.133Z,41.47
2019-04-29T16:20:06.675Z,41.45
2019-04-29T16:22:39.295Z,41.43
2019-04-29T16:25:11.087Z,41.43
2019-04-29T16:27:41.694Z,41.39
2019-04-29T16:30:10.496Z,41.40
2019-04-29T16:32:40.692Z,41.41
2019-04-29T16:35:11.554Z,41.41
2019-04-29T16:37:41.149Z,41.40
2019-04-29T16:40:11.150Z,41.39
2019-04-29T16:42:43.167Z,41.38
2019-04-29T16:45:14.397Z,41.42
2019-04-29T16:47:47.401Z,41.41
2019-04-29T16:50:15.654Z,41.41
2019-04-29T16:52:45.352Z,41.42
2019-04-29T16:55:15.176Z,41.45
2019-04-29T16:57:46.612Z,41.47
2019-04-29T17:00:18.014Z,41.48
2019-04-29T17:02:47.645Z,41.51
2019-04-29T17:05:17.274Z,41.55
2019-04-29T17:07:46.935Z,41.55
2019-04-29T17:10:21.255Z,41.59
2019-04-29T17:12:51.941Z,41.62
2019-04-29T17:15:25.579Z,41.64
2019-04-29T17:17:52.810Z,41.72
2019-04-29T17:20:22.427Z,41.72
2019-04-29T17:22:52.131Z,41.76
2019-04-29T17:25:22.072Z,41.82
2019-04-29T17:27:53.529Z,41.87
2019-04-29T17:30:46.411Z,41.93
2019-04-29T17:33:30.005Z,42.00
2019-04-29T17:36:01.445Z,42.12
2019-04-29T17:38:32.171Z,42.27
2019-04-29T17:41:05.702Z,42.40
2019-04-29T17:44:32.491Z,42.48
2019-04-29T17:47:22.443Z,42.56
2019-04-29T17:49:52.122Z,42.71
2019-04-29T17:52:26.297Z,42.83
2019-04-29T17:54:57.638Z,42.95
2019-04-29T17:57:36.409Z,43.09
2019-04-29T18:00:15.842Z,43.24
2019-04-29T18:02:57.287Z,43.36
2019-04-29T18:05:44.850Z,43.46
2019-04-29T18:08:08.404Z,43.55
2019-04-29T18:10:40.306Z,43.67
2019-04-29T18:13:12.284Z,43.79
2019-04-29T18:15:57.584Z,43.92
2019-04-29T18:18:17.338Z,44.01
2019-04-29T18:20:55.220Z,44.12
2019-04-29T18:23:26.764Z,44.22
2019-04-29T18:26:01.002Z,44.37
2019-04-29T18:28:31.466Z,44.47
2019-04-29T18:31:00.978Z,44.58
2019-04-29T18:33:30.610Z,44.67
2019-04-29T18:36:04.460Z,44.77
2019-04-29T18:38:31.290Z,44.86
2019-04-29T18:41:00.985Z,44.95
2019-04-29T18:43:30.543Z,45.06
2019-04-29T18:46:00.032Z,45.13
2019-04-29T18:48:29.743Z,45.24
2019-04-29T18:50:59.407Z,45.34
2019-04-29T18:53:28.990Z,45.41
2019-04-29T18:55:58.574Z,45.52
2019-04-29T18:58:29.302Z,45.61
2019-04-29T19:00:58.937Z,45.72
2019-04-29T19:03:34.734Z,45.76
2019-04-29T19:06:10.367Z,45.86
2019-04-29T19:08:36.713Z,45.92
2019-04-29T19:11:06.996Z,46.04
2019-04-29T19:13:36.679Z,46.12
2019-04-29T19:16:10.223Z,46.20
2019-04-29T19:18:37.495Z,46.26
2019-04-29T19:21:09.060Z,46.41
2019-04-29T19:23:38.826Z,46.52
2019-04-29T19:26:08.478Z,46.62
2019-04-29T19:28:37.961Z,46.75
2019-04-29T19:31:09.835Z,46.85
2019-04-29T19:33:39.546Z,46.99
2019-04-29T19:36:17.424Z,47.06
2019-04-29T19:38:43.315Z,47.16
2019-04-29T19:41:16.436Z,47.26
2019-04-29T19:43:43.521Z,47.38
2019-04-29T19:46:22.638Z,47.49
2019-04-29T19:48:45.118Z,47.58
2019-04-29T19:51:18.704Z,47.72
2019-04-29T19:53:49.619Z,47.84
2019-04-29T19:56:23.184Z,47.97
2019-04-29T19:58:51.391Z,48.10
2019-04-29T20:01:28.217Z,48.23
2019-04-29T20:04:15.975Z,48.35
2019-04-29T20:06:44.656Z,48.48
2019-04-29T20:09:21.267Z,48.64
2019-04-29T20:11:46.498Z,48.77
2019-04-29T20:14:25.266Z,48.94
2019-04-29T20:17:12.793Z,49.04
2019-04-29T20:19:40.350Z,49.19
2019-04-29T20:22:10.226Z,49.34
2019-04-29T20:24:40.325Z,49.47
2019-04-29T20:27:10.535Z,49.60
2019-04-29T20:29:40.361Z,49.70
2019-04-29T20:32:10.193Z,49.84
2019-04-29T20:34:40.026Z,49.94
2019-04-29T20:37:10.635Z,50.06
2019-04-29T20:39:41.102Z,50.18
2019-04-29T20:42:10.893Z,50.30
2019-04-29T20:44:44.812Z,50.40
2019-04-29T20:47:20.377Z,50.52
2019-04-29T20:49:44.506Z,50.65
2019-04-29T20:52:21.624Z,50.74
2019-04-29T20:54:57.593Z,50.83
2019-04-29T20:57:22.207Z,50.89
2019-04-29T20:59:52.296Z,50.97
2019-04-29T21:02:31.213Z,51.02
2019-04-29T21:04:53.254Z,51.09
2019-04-29T21:07:24.212Z,51.16
2019-04-29T21:09:55.900Z,51.22
2019-04-29T21:12:41.951Z,51.29
2019-04-29T21:15:16.476Z,51.37
2019-04-29T21:17:46.214Z,51.41
2019-04-29T21:20:15.852Z,51.44
2019-04-29T21:22:45.640Z,51.46
2019-04-29T21:25:15.625Z,51.52
2019-04-29T21:27:48.233Z,51.55
2019-04-29T21:30:16.826Z,51.59
2019-04-29T21:32:46.384Z,51.61
2019-04-29T21:35:20.726Z,51.67
2019-04-29T21:38:06.749Z,51.72
2019-04-29T21:40:46.501Z,51.78
2019-04-29T21:43:27.981Z,51.83
2019-04-29T21:45:59.403Z,51.87
2019-04-29T21:48:33.522Z,51.94
2019-04-29T21:50:59.973Z,51.98
2019-04-29T21:53:31.592Z,52.04
2019-04-29T21:56:06.254Z,52.07
2019-04-29T21:58:32.962Z,52.13
2019-04-29T22:01:05.022Z,52.21
2019-04-29T22:03:34.793Z,52.26
2019-04-29T22:06:04.517Z,52.29
2019-04-29T22:08:35.487Z,52.37
2019-04-29T22:11:07.045Z,52.42
2019-04-29T22:13:39.090Z,52.47
2019-04-29T22:16:11.524Z,52.51
2019-04-29T22:18:44.765Z,52.56
2019-04-29T22:21:16.911Z,52.63
2019-04-29T22:23:51.133Z,52.67
2019-04-29T22:26:23.020Z,52.72
2019-04-29T22:28:48.818Z,52.77
2019-04-29T22:31:18.649Z,52.83
2019-04-29T22:33:49.298Z,52.89
2019-04-29T22:36:18.721Z,52.94
2019-04-29T22:38:52.037Z,52.97
2019-04-29T22:41:21.119Z,53.05
2019-04-29T22:43:52.178Z,53.11
2019-04-29T22:46:21.809Z,53.12
2019-04-29T22:48:51.305Z,53.17
2019-04-29T22:51:20.810Z,53.21
2019-04-29T22:53:50.298Z,53.28
2019-04-29T22:56:19.797Z,53.33
2019-04-29T22:58:49.285Z,53.43
2019-04-29T23:01:18.803Z,53.48
2019-04-29T23:03:48.291Z,53.52
2019-04-29T23:06:17.787Z,53.57
2019-04-29T23:08:47.349Z,53.63
2019-04-29T23:11:16.915Z,53.71
2019-04-29T23:13:48.945Z,53.76
2019-04-29T23:16:17.668Z,53.82
2019-04-29T23:18:47.393Z,53.85
2019-04-29T23:21:43.266Z,53.90
2019-04-29T23:24:17.471Z,53.93
2019-04-29T23:26:46.878Z,53.98
2019-04-29T23:29:16.443Z,54.00
2019-04-29T23:31:46.022Z,54.09
2019-04-29T23:34:15.674Z,54.13
2019-04-29T23:36:48.905Z,54.18
2019-04-29T23:39:16.389Z,54.22
2019-04-29T23:41:45.977Z,54.24
2019-04-29T23:44:15.796Z,54.26
2019-04-29T23:46:47.366Z,54.25
2019-04-29T23:49:16.652Z,54.26
2019-04-29T23:51:46.537Z,54.29
2019-04-29T23:54:16.374Z,54.31
2019-04-29T23:57:02.537Z,54.33
2019-04-29T23:59:57.231Z,54.34
